sensor_id;sensor_type;location;lat;lon;timestamp;P1;durP1;ratioP1;P2;durP2;ratioP2
12713;SDS011;6421;44.470;11.270;2022-09-27T00:01:59;5.80;;;2.67;;
12713;SDS011;6421;44.470;11.270;2022-09-27T00:04:25;5.77;;;2.40;;
12713;SDS011;6421;44.470;11.270;2022-09-27T00:06:51;5.53;;;2.53;;
12713;SDS011;6421;44.470;11.270;2022-09-27T00:09:17;3.07;;;2.43;;
12713;SDS011;6421;44.470;11.270;2022-09-27T00:11:44;3.53;;;2.30;;
12713;SDS011;6421;44.470;11.270;2022-09-27T00:14:13;3.80;;;2.50;;
12713;SDS011;6421;44.470;11.270;2022-09-27T00:16:40;4.43;;;2.20;;
12713;SDS011;6421;44.470;11.270;2022-09-27T00:19:08;3.63;;;2.50;;
12713;SDS011;6421;44.470;11.270;2022-09-27T00:21:39;4.00;;;2.30;;
12713;SDS011;6421;44.470;11.270;2022-09-27T00:24:05;5.47;;;2.73;;
12713;SDS011;6421;44.470;11.270;2022-09-27T00:26:31;4.43;;;2.43;;
12713;SDS011;6421;44.470;11.270;2022-09-27T00:28:57;7.70;;;2.50;;
12713;SDS011;6421;44.470;11.270;2022-09-27T00:31:24;5.93;;;2.80;;
12713;SDS011;6421;44.470;11.270;2022-09-27T00:33:53;3.87;;;2.63;;
12713;SDS011;6421;44.470;11.270;2022-09-27T00:36:20;3.57;;;2.50;;
12713;SDS011;6421;44.470;11.270;2022-09-27T00:38:47;6.07;;;2.63;;
12713;SDS011;6421;44.470;11.270;2022-09-27T00:41:17;4.23;;;2.40;;
12713;SDS011;6421;44.470;11.270;2022-09-27T00:43:47;4.30;;;2.63;;
12713;SDS011;6421;44.470;11.270;2022-09-27T00:46:18;3.73;;;2.30;;
12713;SDS011;6421;44.470;11.270;2022-09-27T00:49:02;7.00;;;2.40;;
12713;SDS011;6421;44.470;11.270;2022-09-27T00:51:48;5.27;;;2.20;;
12713;SDS011;6421;44.470;11.270;2022-09-27T00:54:17;7.47;;;3.00;;
12713;SDS011;6421;44.470;11.270;2022-09-27T00:56:44;3.80;;;2.20;;
12713;SDS011;6421;44.470;11.270;2022-09-27T00:59:32;3.93;;;2.30;;
12713;SDS011;6421;44.470;11.270;2022-09-27T01:02:04;2.13;;;2.00;;
12713;SDS011;6421;44.470;11.270;2022-09-27T01:04:31;6.87;;;2.40;;
12713;SDS011;6421;44.470;11.270;2022-09-27T01:06:59;5.17;;;2.70;;
12713;SDS011;6421;44.470;11.270;2022-09-27T01:09:25;4.17;;;2.17;;
12713;SDS011;6421;44.470;11.270;2022-09-27T01:11:53;4.10;;;2.17;;
12713;SDS011;6421;44.470;11.270;2022-09-27T01:14:52;3.77;;;2.50;;
12713;SDS011;6421;44.470;11.270;2022-09-27T01:20:46;5.97;;;2.60;;
12713;SDS011;6421;44.470;11.270;2022-09-27T01:28:55;5.13;;;2.30;;
12713;SDS011;6421;44.470;11.270;2022-09-27T01:34:03;5.33;;;2.60;;
12713;SDS011;6421;44.470;11.270;2022-09-27T01:39:31;8.13;;;2.43;;
12713;SDS011;6421;44.470;11.270;2022-09-27T01:47:34;5.13;;;2.77;;
12713;SDS011;6421;44.470;11.270;2022-09-27T01:50:13;2.63;;;2.10;;
12713;SDS011;6421;44.470;11.270;2022-09-27T01:53:07;8.77;;;2.50;;
12713;SDS011;6421;44.470;11.270;2022-09-27T01:55:36;6.23;;;2.33;;
12713;SDS011;6421;44.470;11.270;2022-09-27T01:58:09;3.53;;;2.30;;
12713;SDS011;6421;44.470;11.270;2022-09-27T02:00:39;2.43;;;2.23;;
12713;SDS011;6421;44.470;11.270;2022-09-27T02:03:10;2.50;;;2.30;;
12713;SDS011;6421;44.470;11.270;2022-09-27T02:05:43;5.93;;;2.03;;
12713;SDS011;6421;44.470;11.270;2022-09-27T02:08:57;3.23;;;2.40;;
12713;SDS011;6421;44.470;11.270;2022-09-27T02:11:15;2.53;;;1.97;;
12713;SDS011;6421;44.470;11.270;2022-09-27T02:13:48;3.87;;;2.30;;
12713;SDS011;6421;44.470;11.270;2022-09-27T02:16:45;4.77;;;2.20;;
12713;SDS011;6421;44.470;11.270;2022-09-27T02:19:20;2.93;;;2.40;;
12713;SDS011;6421;44.470;11.270;2022-09-27T02:24:41;5.40;;;2.60;;
12713;SDS011;6421;44.470;11.270;2022-09-27T02:27:21;5.33;;;2.30;;
12713;SDS011;6421;44.470;11.270;2022-09-27T02:29:53;3.50;;;2.10;;
12713;SDS011;6421;44.470;11.270;2022-09-27T02:32:26;4.27;;;2.40;;
12713;SDS011;6421;44.470;11.270;2022-09-27T02:34:51;4.67;;;1.97;;
12713;SDS011;6421;44.470;11.270;2022-09-27T02:37:19;3.43;;;2.37;;
12713;SDS011;6421;44.470;11.270;2022-09-27T02:42:18;6.57;;;2.70;;
12713;SDS011;6421;44.470;11.270;2022-09-27T02:44:43;3.47;;;2.40;;
12713;SDS011;6421;44.470;11.270;2022-09-27T02:47:12;2.90;;;2.10;;
12713;SDS011;6421;44.470;11.270;2022-09-27T02:53:05;5.43;;;2.53;;
12713;SDS011;6421;44.470;11.270;2022-09-27T02:55:55;5.60;;;2.70;;
12713;SDS011;6421;44.470;11.270;2022-09-27T02:58:57;3.43;;;2.43;;
12713;SDS011;6421;44.470;11.270;2022-09-27T03:04:55;4.93;;;2.50;;
12713;SDS011;6421;44.470;11.270;2022-09-27T03:07:26;6.33;;;2.50;;
12713;SDS011;6421;44.470;11.270;2022-09-27T03:09:53;2.93;;;2.20;;
12713;SDS011;6421;44.470;11.270;2022-09-27T03:12:19;3.20;;;2.30;;
12713;SDS011;6421;44.470;11.270;2022-09-27T03:14:58;4.33;;;2.20;;
12713;SDS011;6421;44.470;11.270;2022-09-27T03:17:24;3.77;;;2.20;;
12713;SDS011;6421;44.470;11.270;2022-09-27T03:19:50;2.43;;;1.90;;
12713;SDS011;6421;44.470;11.270;2022-09-27T03:22:16;3.13;;;2.10;;
12713;SDS011;6421;44.470;11.270;2022-09-27T03:24:42;4.00;;;2.30;;
12713;SDS011;6421;44.470;11.270;2022-09-27T03:27:09;2.77;;;2.07;;
12713;SDS011;6421;44.470;11.270;2022-09-27T03:29:35;6.27;;;2.37;;
12713;SDS011;6421;44.470;11.270;2022-09-27T03:32:01;2.07;;;1.97;;
12713;SDS011;6421;44.470;11.270;2022-09-27T03:34:27;2.63;;;2.03;;
12713;SDS011;6421;44.470;11.270;2022-09-27T03:36:53;4.17;;;2.27;;
12713;SDS011;6421;44.470;11.270;2022-09-27T03:39:19;3.53;;;2.27;;
12713;SDS011;6421;44.470;11.270;2022-09-27T03:41:45;2.20;;;1.97;;
12713;SDS011;6421;44.470;11.270;2022-09-27T03:44:11;2.27;;;1.90;;
12713;SDS011;6421;44.470;11.270;2022-09-27T03:46:36;3.17;;;2.23;;
12713;SDS011;6421;44.470;11.270;2022-09-27T03:49:02;1.80;;;1.70;;
12713;SDS011;6421;44.470;11.270;2022-09-27T03:51:28;2.97;;;2.40;;
12713;SDS011;6421;44.470;11.270;2022-09-27T03:53:53;2.97;;;2.17;;
12713;SDS011;6421;44.470;11.270;2022-09-27T03:56:19;4.97;;;2.67;;
12713;SDS011;6421;44.470;11.270;2022-09-27T03:58:44;4.03;;;2.67;;
12713;SDS011;6421;44.470;11.270;2022-09-27T04:01:10;2.40;;;2.20;;
12713;SDS011;6421;44.470;11.270;2022-09-27T04:03:36;5.00;;;2.30;;
12713;SDS011;6421;44.470;11.270;2022-09-27T04:06:02;2.83;;;2.50;;
12713;SDS011;6421;44.470;11.270;2022-09-27T04:08:28;3.80;;;2.37;;
12713;SDS011;6421;44.470;11.270;2022-09-27T04:10:54;4.30;;;2.60;;
12713;SDS011;6421;44.470;11.270;2022-09-27T04:13:20;2.73;;;2.47;;
12713;SDS011;6421;44.470;11.270;2022-09-27T04:15:46;4.00;;;2.53;;
12713;SDS011;6421;44.470;11.270;2022-09-27T04:18:12;3.10;;;2.30;;
12713;SDS011;6421;44.470;11.270;2022-09-27T04:20:38;2.70;;;2.50;;
12713;SDS011;6421;44.470;11.270;2022-09-27T04:23:04;4.20;;;2.13;;
12713;SDS011;6421;44.470;11.270;2022-09-27T04:25:30;3.43;;;2.53;;
12713;SDS011;6421;44.470;11.270;2022-09-27T04:27:57;2.63;;;2.03;;
12713;SDS011;6421;44.470;11.270;2022-09-27T04:30:23;3.27;;;2.20;;
12713;SDS011;6421;44.470;11.270;2022-09-27T04:32:50;4.97;;;2.27;;
12713;SDS011;6421;44.470;11.270;2022-09-27T04:35:16;4.20;;;2.13;;
12713;SDS011;6421;44.470;11.270;2022-09-27T04:38:01;3.97;;;1.97;;
12713;SDS011;6421;44.470;11.270;2022-09-27T04:40:27;3.40;;;2.40;;
12713;SDS011;6421;44.470;11.270;2022-09-27T04:42:53;4.67;;;2.47;;
12713;SDS011;6421;44.470;11.270;2022-09-27T04:45:19;3.57;;;2.17;;
12713;SDS011;6421;44.470;11.270;2022-09-27T04:47:45;3.87;;;2.10;;
12713;SDS011;6421;44.470;11.270;2022-09-27T04:50:12;6.77;;;2.17;;
12713;SDS011;6421;44.470;11.270;2022-09-27T04:52:38;5.03;;;2.80;;
12713;SDS011;6421;44.470;11.270;2022-09-27T04:55:05;5.23;;;2.47;;
12713;SDS011;6421;44.470;11.270;2022-09-27T04:57:32;3.00;;;2.10;;
12713;SDS011;6421;44.470;11.270;2022-09-27T04:59:57;3.37;;;2.53;;
12713;SDS011;6421;44.470;11.270;2022-09-27T05:02:26;3.57;;;2.20;;
12713;SDS011;6421;44.470;11.270;2022-09-27T05:04:53;4.50;;;2.00;;
12713;SDS011;6421;44.470;11.270;2022-09-27T05:07:23;2.97;;;2.10;;
12713;SDS011;6421;44.470;11.270;2022-09-27T05:09:52;4.20;;;2.10;;
12713;SDS011;6421;44.470;11.270;2022-09-27T05:12:18;7.77;;;5.43;;
12713;SDS011;6421;44.470;11.270;2022-09-27T05:14:44;5.60;;;4.43;;
12713;SDS011;6421;44.470;11.270;2022-09-27T05:17:10;4.37;;;3.37;;
12713;SDS011;6421;44.470;11.270;2022-09-27T05:19:36;3.23;;;2.13;;
12713;SDS011;6421;44.470;11.270;2022-09-27T05:22:03;7.10;;;2.37;;
12713;SDS011;6421;44.470;11.270;2022-09-27T05:24:29;2.80;;;2.30;;
12713;SDS011;6421;44.470;11.270;2022-09-27T05:26:56;2.90;;;2.60;;
12713;SDS011;6421;44.470;11.270;2022-09-27T05:29:22;4.97;;;2.57;;
12713;SDS011;6421;44.470;11.270;2022-09-27T05:31:47;3.07;;;2.30;;
12713;SDS011;6421;44.470;11.270;2022-09-27T05:34:14;5.27;;;2.37;;
12713;SDS011;6421;44.470;11.270;2022-09-27T05:36:39;5.17;;;3.80;;
12713;SDS011;6421;44.470;11.270;2022-09-27T05:39:05;9.43;;;3.70;;
12713;SDS011;6421;44.470;11.270;2022-09-27T05:41:31;6.43;;;3.13;;
12713;SDS011;6421;44.470;11.270;2022-09-27T05:43:58;6.60;;;3.23;;
12713;SDS011;6421;44.470;11.270;2022-09-27T05:46:23;5.60;;;2.83;;
12713;SDS011;6421;44.470;11.270;2022-09-27T05:48:49;7.30;;;2.47;;
12713;SDS011;6421;44.470;11.270;2022-09-27T05:51:15;5.37;;;2.73;;
12713;SDS011;6421;44.470;11.270;2022-09-27T05:53:40;6.50;;;3.07;;
12713;SDS011;6421;44.470;11.270;2022-09-27T05:56:06;6.87;;;3.37;;
12713;SDS011;6421;44.470;11.270;2022-09-27T05:58:32;5.97;;;3.37;;
12713;SDS011;6421;44.470;11.270;2022-09-27T06:00:58;6.03;;;3.93;;
12713;SDS011;6421;44.470;11.270;2022-09-27T06:03:24;4.93;;;3.33;;
12713;SDS011;6421;44.470;11.270;2022-09-27T06:05:50;10.23;;;3.57;;
12713;SDS011;6421;44.470;11.270;2022-09-27T06:08:15;9.30;;;3.80;;
12713;SDS011;6421;44.470;11.270;2022-09-27T06:10:41;8.03;;;3.57;;
12713;SDS011;6421;44.470;11.270;2022-09-27T06:13:09;9.27;;;3.73;;
12713;SDS011;6421;44.470;11.270;2022-09-27T06:15:37;7.80;;;3.67;;
12713;SDS011;6421;44.470;11.270;2022-09-27T06:18:05;12.00;;;3.93;;
12713;SDS011;6421;44.470;11.270;2022-09-27T06:20:36;11.30;;;4.20;;
12713;SDS011;6421;44.470;11.270;2022-09-27T06:23:10;9.70;;;4.47;;
12713;SDS011;6421;44.470;11.270;2022-09-27T06:25:37;10.80;;;4.37;;
12713;SDS011;6421;44.470;11.270;2022-09-27T06:28:04;14.23;;;4.87;;
12713;SDS011;6421;44.470;11.270;2022-09-27T06:30:30;9.30;;;4.53;;
12713;SDS011;6421;44.470;11.270;2022-09-27T06:32:57;7.47;;;3.90;;
12713;SDS011;6421;44.470;11.270;2022-09-27T06:35:24;7.57;;;3.20;;
12713;SDS011;6421;44.470;11.270;2022-09-27T06:37:51;8.73;;;3.33;;
12713;SDS011;6421;44.470;11.270;2022-09-27T06:40:17;11.40;;;3.50;;
12713;SDS011;6421;44.470;11.270;2022-09-27T06:42:44;10.53;;;3.40;;
12713;SDS011;6421;44.470;11.270;2022-09-27T06:45:10;8.27;;;3.00;;
12713;SDS011;6421;44.470;11.270;2022-09-27T06:47:36;10.17;;;3.20;;
12713;SDS011;6421;44.470;11.270;2022-09-27T06:50:03;5.97;;;2.73;;
12713;SDS011;6421;44.470;11.270;2022-09-27T06:52:30;7.10;;;3.00;;
12713;SDS011;6421;44.470;11.270;2022-09-27T06:54:56;7.00;;;3.00;;
12713;SDS011;6421;44.470;11.270;2022-09-27T06:57:21;6.27;;;2.87;;
12713;SDS011;6421;44.470;11.270;2022-09-27T07:00:06;6.83;;;3.10;;
12713;SDS011;6421;44.470;11.270;2022-09-27T07:02:54;5.07;;;3.03;;
12713;SDS011;6421;44.470;11.270;2022-09-27T07:05:24;12.10;;;3.23;;
12713;SDS011;6421;44.470;11.270;2022-09-27T07:07:57;7.57;;;3.03;;
12713;SDS011;6421;44.470;11.270;2022-09-27T07:10:24;9.37;;;2.33;;
12713;SDS011;6421;44.470;11.270;2022-09-27T07:12:51;6.27;;;2.93;;
12713;SDS011;6421;44.470;11.270;2022-09-27T07:15:18;6.43;;;2.47;;
12713;SDS011;6421;44.470;11.270;2022-09-27T07:17:45;7.47;;;2.70;;
12713;SDS011;6421;44.470;11.270;2022-09-27T07:20:12;9.30;;;3.60;;
12713;SDS011;6421;44.470;11.270;2022-09-27T07:22:39;10.57;;;3.00;;
12713;SDS011;6421;44.470;11.270;2022-09-27T07:25:10;6.60;;;2.67;;
12713;SDS011;6421;44.470;11.270;2022-09-27T07:27:36;7.23;;;2.70;;
12713;SDS011;6421;44.470;11.270;2022-09-27T07:30:02;8.10;;;2.13;;
12713;SDS011;6421;44.470;11.270;2022-09-27T07:32:31;5.63;;;2.60;;
12713;SDS011;6421;44.470;11.270;2022-09-27T07:34:59;7.20;;;2.90;;
12713;SDS011;6421;44.470;11.270;2022-09-27T07:37:25;12.90;;;3.20;;
12713;SDS011;6421;44.470;11.270;2022-09-27T07:39:51;4.80;;;2.80;;
12713;SDS011;6421;44.470;11.270;2022-09-27T07:42:16;7.00;;;2.83;;
12713;SDS011;6421;44.470;11.270;2022-09-27T07:44:42;8.27;;;2.80;;
12713;SDS011;6421;44.470;11.270;2022-09-27T07:47:08;9.53;;;2.93;;
12713;SDS011;6421;44.470;11.270;2022-09-27T07:49:34;5.57;;;2.87;;
12713;SDS011;6421;44.470;11.270;2022-09-27T07:52:01;4.53;;;2.20;;
12713;SDS011;6421;44.470;11.270;2022-09-27T07:54:26;7.20;;;2.40;;
12713;SDS011;6421;44.470;11.270;2022-09-27T07:56:53;6.93;;;2.37;;
12713;SDS011;6421;44.470;11.270;2022-09-27T07:59:19;5.67;;;2.57;;
12713;SDS011;6421;44.470;11.270;2022-09-27T08:01:45;9.87;;;2.53;;
12713;SDS011;6421;44.470;11.270;2022-09-27T08:04:10;5.60;;;2.30;;
12713;SDS011;6421;44.470;11.270;2022-09-27T08:06:36;3.93;;;2.30;;
12713;SDS011;6421;44.470;11.270;2022-09-27T08:09:04;8.23;;;2.50;;
12713;SDS011;6421;44.470;11.270;2022-09-27T08:11:30;10.23;;;2.97;;
12713;SDS011;6421;44.470;11.270;2022-09-27T08:13:56;7.90;;;3.10;;
12713;SDS011;6421;44.470;11.270;2022-09-27T08:16:22;7.57;;;2.43;;
12713;SDS011;6421;44.470;11.270;2022-09-27T08:18:47;5.90;;;2.20;;
12713;SDS011;6421;44.470;11.270;2022-09-27T08:21:13;6.70;;;2.60;;
12713;SDS011;6421;44.470;11.270;2022-09-27T08:23:39;5.70;;;2.40;;
12713;SDS011;6421;44.470;11.270;2022-09-27T08:26:06;8.40;;;2.73;;
12713;SDS011;6421;44.470;11.270;2022-09-27T08:28:32;6.90;;;2.27;;
12713;SDS011;6421;44.470;11.270;2022-09-27T08:30:58;5.60;;;2.40;;
12713;SDS011;6421;44.470;11.270;2022-09-27T08:33:24;6.23;;;2.50;;
12713;SDS011;6421;44.470;11.270;2022-09-27T08:35:50;7.03;;;2.60;;
12713;SDS011;6421;44.470;11.270;2022-09-27T08:38:16;9.53;;;2.90;;
12713;SDS011;6421;44.470;11.270;2022-09-27T08:48:29;7.30;;;2.93;;
12713;SDS011;6421;44.470;11.270;2022-09-27T08:50:56;10.33;;;2.90;;
12713;SDS011;6421;44.470;11.270;2022-09-27T08:53:24;5.50;;;2.80;;
12713;SDS011;6421;44.470;11.270;2022-09-27T08:56:01;7.83;;;3.00;;
12713;SDS011;6421;44.470;11.270;2022-09-27T08:58:29;4.17;;;2.10;;
12713;SDS011;6421;44.470;11.270;2022-09-27T09:01:01;5.30;;;2.23;;
12713;SDS011;6421;44.470;11.270;2022-09-27T09:03:30;7.13;;;2.33;;
12713;SDS011;6421;44.470;11.270;2022-09-27T09:08:51;6.67;;;3.30;;
12713;SDS011;6421;44.470;11.270;2022-09-27T09:28:33;7.90;;;3.07;;
12713;SDS011;6421;44.470;11.270;2022-09-27T09:34:02;8.03;;;2.60;;
12713;SDS011;6421;44.470;11.270;2022-09-27T09:36:48;6.83;;;2.43;;
12713;SDS011;6421;44.470;11.270;2022-09-27T09:39:32;4.53;;;2.20;;
12713;SDS011;6421;44.470;11.270;2022-09-27T09:44:44;5.83;;;3.47;;
12713;SDS011;6421;44.470;11.270;2022-09-27T09:47:29;9.47;;;3.27;;
12713;SDS011;6421;44.470;11.270;2022-09-27T09:50:01;5.40;;;2.20;;
12713;SDS011;6421;44.470;11.270;2022-09-27T09:52:37;4.67;;;2.20;;
12713;SDS011;6421;44.470;11.270;2022-09-27T09:55:12;4.50;;;2.13;;
12713;SDS011;6421;44.470;11.270;2022-09-27T10:00:27;6.33;;;2.63;;
12713;SDS011;6421;44.470;11.270;2022-09-27T10:02:54;3.50;;;2.87;;
12713;SDS011;6421;44.470;11.270;2022-09-27T10:05:24;10.43;;;4.90;;
12713;SDS011;6421;44.470;11.270;2022-09-27T10:07:51;5.63;;;2.93;;
12713;SDS011;6421;44.470;11.270;2022-09-27T10:10:21;6.07;;;2.37;;
12713;SDS011;6421;44.470;11.270;2022-09-27T10:12:47;3.20;;;2.47;;
12713;SDS011;6421;44.470;11.270;2022-09-27T10:15:25;5.70;;;2.13;;
12713;SDS011;6421;44.470;11.270;2022-09-27T10:17:54;4.40;;;2.50;;
12713;SDS011;6421;44.470;11.270;2022-09-27T10:23:20;7.43;;;2.67;;
12713;SDS011;6421;44.470;11.270;2022-09-27T10:25:51;6.37;;;2.83;;
12713;SDS011;6421;44.470;11.270;2022-09-27T10:28:28;4.03;;;2.30;;
12713;SDS011;6421;44.470;11.270;2022-09-27T10:30:56;6.00;;;2.70;;
12713;SDS011;6421;44.470;11.270;2022-09-27T10:33:31;5.97;;;2.50;;
12713;SDS011;6421;44.470;11.270;2022-09-27T10:35:58;6.63;;;2.70;;
12713;SDS011;6421;44.470;11.270;2022-09-27T10:38:32;5.00;;;2.70;;
12713;SDS011;6421;44.470;11.270;2022-09-27T10:41:14;5.57;;;2.47;;
12713;SDS011;6421;44.470;11.270;2022-09-27T10:43:40;5.40;;;2.60;;
12713;SDS011;6421;44.470;11.270;2022-09-27T10:48:39;7.47;;;2.20;;
12713;SDS011;6421;44.470;11.270;2022-09-27T10:51:22;7.93;;;2.67;;
12713;SDS011;6421;44.470;11.270;2022-09-27T10:53:53;6.00;;;2.70;;
12713;SDS011;6421;44.470;11.270;2022-09-27T10:56:24;4.90;;;2.40;;
12713;SDS011;6421;44.470;11.270;2022-09-27T10:58:53;3.70;;;2.67;;
12713;SDS011;6421;44.470;11.270;2022-09-27T11:01:20;8.07;;;3.30;;
12713;SDS011;6421;44.470;11.270;2022-09-27T11:03:50;4.23;;;2.20;;
12713;SDS011;6421;44.470;11.270;2022-09-27T11:08:48;3.80;;;2.60;;
12713;SDS011;6421;44.470;11.270;2022-09-27T11:11:16;3.97;;;2.47;;
12713;SDS011;6421;44.470;11.270;2022-09-27T11:13:57;7.10;;;2.87;;
12713;SDS011;6421;44.470;11.270;2022-09-27T11:27:01;4.43;;;2.33;;
12713;SDS011;6421;44.470;11.270;2022-09-27T11:48:38;4.13;;;2.43;;
12713;SDS011;6421;44.470;11.270;2022-09-27T12:10:13;4.03;;;2.23;;
12713;SDS011;6421;44.470;11.270;2022-09-27T12:12:42;5.53;;;2.37;;
12713;SDS011;6421;44.470;11.270;2022-09-27T12:15:46;3.77;;;2.27;;
12713;SDS011;6421;44.470;11.270;2022-09-27T12:18:09;2.77;;;2.20;;
12713;SDS011;6421;44.470;11.270;2022-09-27T12:20:43;2.43;;;2.00;;
12713;SDS011;6421;44.470;11.270;2022-09-27T12:23:10;7.63;;;2.83;;
12713;SDS011;6421;44.470;11.270;2022-09-27T12:25:49;3.80;;;1.93;;
12713;SDS011;6421;44.470;11.270;2022-09-27T12:28:30;7.60;;;2.13;;
12713;SDS011;6421;44.470;11.270;2022-09-27T12:31:05;2.67;;;1.53;;
12713;SDS011;6421;44.470;11.270;2022-09-27T12:36:52;1.40;;;1.30;;
12713;SDS011;6421;44.470;11.270;2022-09-27T12:39:43;8.80;;;1.97;;
12713;SDS011;6421;44.470;11.270;2022-09-27T12:42:17;3.27;;;1.63;;
12713;SDS011;6421;44.470;11.270;2022-09-27T12:44:46;4.33;;;1.63;;
12713;SDS011;6421;44.470;11.270;2022-09-27T12:47:22;3.73;;;2.10;;
12713;SDS011;6421;44.470;11.270;2022-09-27T12:52:30;2.60;;;1.63;;
12713;SDS011;6421;44.470;11.270;2022-09-27T12:55:19;2.83;;;1.30;;
12713;SDS011;6421;44.470;11.270;2022-09-27T13:00:58;4.30;;;1.80;;
12713;SDS011;6421;44.470;11.270;2022-09-27T13:03:39;1.57;;;1.40;;
12713;SDS011;6421;44.470;11.270;2022-09-27T13:12:33;2.30;;;1.40;;
12713;SDS011;6421;44.470;11.270;2022-09-27T13:14:30;2.07;;;1.30;;
12713;SDS011;6421;44.470;11.270;2022-09-27T13:16:59;3.80;;;1.20;;
12713;SDS011;6421;44.470;11.270;2022-09-27T13:22:00;6.37;;;1.77;;
12713;SDS011;6421;44.470;11.270;2022-09-27T13:24:49;2.00;;;1.70;;
12713;SDS011;6421;44.470;11.270;2022-09-27T13:30:41;1.53;;;1.30;;
12713;SDS011;6421;44.470;11.270;2022-09-27T13:32:40;4.70;;;1.30;;
12713;SDS011;6421;44.470;11.270;2022-09-27T13:35:34;4.03;;;1.40;;
12713;SDS011;6421;44.470;11.270;2022-09-27T13:38:00;2.33;;;1.90;;
12713;SDS011;6421;44.470;11.270;2022-09-27T13:53:58;7.30;;;1.50;;
12713;SDS011;6421;44.470;11.270;2022-09-27T13:59:18;3.37;;;1.50;;
12713;SDS011;6421;44.470;11.270;2022-09-27T14:04:41;1.80;;;1.40;;
12713;SDS011;6421;44.470;11.270;2022-09-27T14:07:13;3.20;;;1.87;;
12713;SDS011;6421;44.470;11.270;2022-09-27T14:09:47;5.60;;;1.63;;
12713;SDS011;6421;44.470;11.270;2022-09-27T14:12:19;3.70;;;1.77;;
12713;SDS011;6421;44.470;11.270;2022-09-27T14:14:48;5.03;;;1.70;;
12713;SDS011;6421;44.470;11.270;2022-09-27T14:17:15;4.67;;;1.40;;
12713;SDS011;6421;44.470;11.270;2022-09-27T14:19:42;1.40;;;1.30;;
12713;SDS011;6421;44.470;11.270;2022-09-27T14:22:13;2.73;;;1.47;;
12713;SDS011;6421;44.470;11.270;2022-09-27T14:27:12;4.77;;;1.63;;
12713;SDS011;6421;44.470;11.270;2022-09-27T14:32:29;3.63;;;1.40;;
12713;SDS011;6421;44.470;11.270;2022-09-27T14:35:17;3.63;;;1.53;;
12713;SDS011;6421;44.470;11.270;2022-09-27T14:38:04;5.47;;;1.90;;
12713;SDS011;6421;44.470;11.270;2022-09-27T14:40:35;5.10;;;1.43;;
12713;SDS011;6421;44.470;11.270;2022-09-27T14:43:09;4.60;;;1.10;;
12713;SDS011;6421;44.470;11.270;2022-09-27T14:45:40;3.73;;;1.50;;
12713;SDS011;6421;44.470;11.270;2022-09-27T14:51:01;3.40;;;1.57;;
12713;SDS011;6421;44.470;11.270;2022-09-27T14:53:49;2.77;;;1.20;;
12713;SDS011;6421;44.470;11.270;2022-09-27T14:56:21;4.73;;;1.60;;
12713;SDS011;6421;44.470;11.270;2022-09-27T14:58:55;2.80;;;1.60;;
12713;SDS011;6421;44.470;11.270;2022-09-27T15:01:26;4.43;;;1.43;;
12713;SDS011;6421;44.470;11.270;2022-09-27T15:03:53;3.00;;;1.37;;
12713;SDS011;6421;44.470;11.270;2022-09-27T15:06:21;3.87;;;1.60;;
12713;SDS011;6421;44.470;11.270;2022-09-27T15:08:48;3.53;;;1.60;;
12713;SDS011;6421;44.470;11.270;2022-09-27T15:11:17;3.40;;;1.37;;
12713;SDS011;6421;44.470;11.270;2022-09-27T15:13:44;4.27;;;1.53;;
12713;SDS011;6421;44.470;11.270;2022-09-27T15:16:19;6.30;;;1.70;;
12713;SDS011;6421;44.470;11.270;2022-09-27T15:19:00;3.20;;;1.60;;
12713;SDS011;6421;44.470;11.270;2022-09-27T15:21:32;7.93;;;1.83;;
12713;SDS011;6421;44.470;11.270;2022-09-27T15:23:59;6.27;;;1.50;;
12713;SDS011;6421;44.470;11.270;2022-09-27T15:26:43;4.50;;;1.60;;
12713;SDS011;6421;44.470;11.270;2022-09-27T15:29:17;5.40;;;1.73;;
12713;SDS011;6421;44.470;11.270;2022-09-27T15:31:44;9.27;;;2.00;;
12713;SDS011;6421;44.470;11.270;2022-09-27T15:34:15;5.10;;;1.47;;
12713;SDS011;6421;44.470;11.270;2022-09-27T15:36:50;2.63;;;1.33;;
12713;SDS011;6421;44.470;11.270;2022-09-27T15:39:19;6.43;;;1.73;;
12713;SDS011;6421;44.470;11.270;2022-09-27T15:42:10;4.20;;;1.20;;
12713;SDS011;6421;44.470;11.270;2022-09-27T15:44:48;2.43;;;1.40;;
12713;SDS011;6421;44.470;11.270;2022-09-27T15:49:58;6.03;;;1.63;;
12713;SDS011;6421;44.470;11.270;2022-09-27T15:52:40;5.03;;;1.40;;
12713;SDS011;6421;44.470;11.270;2022-09-27T15:55:10;5.23;;;2.13;;
12713;SDS011;6421;44.470;11.270;2022-09-27T15:57:37;5.30;;;1.37;;
12713;SDS011;6421;44.470;11.270;2022-09-27T16:00:04;2.43;;;1.53;;
12713;SDS011;6421;44.470;11.270;2022-09-27T16:02:31;2.67;;;1.83;;
12713;SDS011;6421;44.470;11.270;2022-09-27T16:04:57;2.60;;;1.53;;
12713;SDS011;6421;44.470;11.270;2022-09-27T16:07:22;2.80;;;1.37;;
12713;SDS011;6421;44.470;11.270;2022-09-27T16:09:48;3.87;;;1.80;;
12713;SDS011;6421;44.470;11.270;2022-09-27T16:12:16;6.67;;;1.70;;
12713;SDS011;6421;44.470;11.270;2022-09-27T16:14:41;2.70;;;1.20;;
12713;SDS011;6421;44.470;11.270;2022-09-27T16:17:08;3.90;;;1.50;;
12713;SDS011;6421;44.470;11.270;2022-09-27T16:19:34;4.73;;;1.67;;
12713;SDS011;6421;44.470;11.270;2022-09-27T16:22:01;2.37;;;1.73;;
12713;SDS011;6421;44.470;11.270;2022-09-27T16:24:28;5.67;;;1.50;;
12713;SDS011;6421;44.470;11.270;2022-09-27T16:26:54;3.23;;;1.40;;
12713;SDS011;6421;44.470;11.270;2022-09-27T16:29:19;3.93;;;1.40;;
12713;SDS011;6421;44.470;11.270;2022-09-27T16:31:45;2.20;;;1.40;;
12713;SDS011;6421;44.470;11.270;2022-09-27T16:34:11;4.30;;;1.73;;
12713;SDS011;6421;44.470;11.270;2022-09-27T16:36:37;2.90;;;1.73;;
12713;SDS011;6421;44.470;11.270;2022-09-27T16:39:04;4.23;;;1.60;;
12713;SDS011;6421;44.470;11.270;2022-09-27T16:41:34;6.67;;;2.07;;
12713;SDS011;6421;44.470;11.270;2022-09-27T16:44:04;3.03;;;1.60;;
12713;SDS011;6421;44.470;11.270;2022-09-27T16:46:31;5.20;;;1.90;;
12713;SDS011;6421;44.470;11.270;2022-09-27T16:48:58;6.77;;;4.00;;
12713;SDS011;6421;44.470;11.270;2022-09-27T16:51:24;7.47;;;3.40;;
12713;SDS011;6421;44.470;11.270;2022-09-27T16:54:09;4.83;;;2.70;;
12713;SDS011;6421;44.470;11.270;2022-09-27T16:56:35;8.50;;;2.30;;
12713;SDS011;6421;44.470;11.270;2022-09-27T16:59:01;6.07;;;2.00;;
12713;SDS011;6421;44.470;11.270;2022-09-27T17:01:31;10.40;;;2.20;;
12713;SDS011;6421;44.470;11.270;2022-09-27T17:03:58;5.97;;;2.23;;
12713;SDS011;6421;44.470;11.270;2022-09-27T17:06:24;7.97;;;2.10;;
12713;SDS011;6421;44.470;11.270;2022-09-27T17:08:52;6.20;;;1.60;;
12713;SDS011;6421;44.470;11.270;2022-09-27T17:11:18;4.53;;;1.53;;
12713;SDS011;6421;44.470;11.270;2022-09-27T17:13:45;7.60;;;2.00;;
12713;SDS011;6421;44.470;11.270;2022-09-27T17:16:13;3.17;;;1.47;;
12713;SDS011;6421;44.470;11.270;2022-09-27T17:18:39;3.77;;;1.50;;
12713;SDS011;6421;44.470;11.270;2022-09-27T17:21:06;4.20;;;1.40;;
12713;SDS011;6421;44.470;11.270;2022-09-27T17:23:33;2.40;;;1.60;;
12713;SDS011;6421;44.470;11.270;2022-09-27T17:26:18;3.63;;;1.70;;
12713;SDS011;6421;44.470;11.270;2022-09-27T17:28:46;4.27;;;1.50;;
12713;SDS011;6421;44.470;11.270;2022-09-27T17:31:13;2.50;;;1.47;;
12713;SDS011;6421;44.470;11.270;2022-09-27T17:33:42;4.50;;;1.97;;
12713;SDS011;6421;44.470;11.270;2022-09-27T17:36:13;2.50;;;1.73;;
12713;SDS011;6421;44.470;11.270;2022-09-27T17:38:41;3.17;;;1.50;;
12713;SDS011;6421;44.470;11.270;2022-09-27T17:41:08;1.70;;;1.50;;
12713;SDS011;6421;44.470;11.270;2022-09-27T17:43:36;5.37;;;1.90;;
12713;SDS011;6421;44.470;11.270;2022-09-27T17:46:08;2.90;;;1.50;;
12713;SDS011;6421;44.470;11.270;2022-09-27T17:48:35;2.87;;;2.00;;
12713;SDS011;6421;44.470;11.270;2022-09-27T17:51:20;6.00;;;1.90;;
12713;SDS011;6421;44.470;11.270;2022-09-27T17:53:46;3.57;;;1.80;;
12713;SDS011;6421;44.470;11.270;2022-09-27T17:56:12;3.97;;;1.60;;
12713;SDS011;6421;44.470;11.270;2022-09-27T17:58:39;2.97;;;1.60;;
12713;SDS011;6421;44.470;11.270;2022-09-27T18:01:12;2.97;;;1.70;;